createdAt,value
2022-09-09T00:01:16.538Z,98.60
2022-09-09T00:04:05.522Z,98.43
2022-09-09T00:07:15.159Z,98.41
2022-09-09T00:10:14.452Z,98.24
2022-09-09T00:13:07.814Z,98.15
2022-09-09T00:15:58.578Z,98.04
2022-09-09T00:18:33.172Z,98.25
2022-09-09T00:21:08.681Z,97.97
2022-09-09T00:23:53.959Z,97.86
2022-09-09T00:26:46.506Z,97.81
2022-09-09T00:29:26.149Z,98.03
2022-09-09T00:32:02.015Z,97.64
2022-09-09T00:34:30.222Z,97.83
2022-09-09T00:36:58.177Z,97.96
2022-09-09T00:39:36.290Z,98.08
2022-09-09T00:42:16.098Z,98.42
2022-09-09T00:45:07.615Z,98.40
2022-09-09T00:47:52.054Z,98.48
2022-09-09T00:50:40.037Z,98.59
2022-09-09T00:53:28.788Z,98.57
2022-09-09T00:56:22.575Z,98.78
2022-09-09T00:59:05.943Z,98.75
2022-09-09T01:01:34.011Z,98.93
2022-09-09T01:04:04.406Z,99.15
2022-09-09T01:06:39.548Z,98.91
2022-09-09T01:09:28.588Z,98.98
2022-09-09T01:12:19.126Z,99.08
2022-09-09T01:15:05.540Z,99.09
2022-09-09T01:17:50.241Z,99.03
2022-09-09T01:20:33.793Z,99.15
2022-09-09T01:23:32.316Z,99.22
2022-09-09T01:26:34.719Z,99.32
2022-09-09T01:29:11.301Z,99.42
2022-09-09T01:31:58.319Z,99.41
2022-09-09T01:34:28.937Z,99.53
2022-09-09T01:37:11.095Z,99.49
2022-09-09T01:39:42.580Z,99.48
2022-09-09T01:42:17.108Z,99.50
2022-09-09T01:44:46.089Z,99.67
2022-09-09T01:47:15.415Z,99.69
2022-09-09T01:49:58.053Z,99.73
2022-09-09T01:52:28.520Z,99.65
2022-09-09T01:54:56.847Z,99.75
2022-09-09T01:57:39.054Z,99.86
2022-09-09T02:00:10.187Z,99.82
2022-09-09T02:03:01.095Z,99.93
2022-09-09T02:05:41.703Z,99.99
2022-09-09T02:08:29.849Z,99.95
2022-09-09T02:11:08.322Z,99.92
2022-09-09T02:13:45.195Z,99.81
2022-09-09T02:16:33.454Z,99.81
2022-09-09T02:19:24.764Z,99.75
2022-09-09T02:22:08.575Z,99.69
2022-09-09T02:24:40.823Z,99.51
2022-09-09T02:27:21.342Z,99.48
2022-09-09T02:29:52.431Z,99.50
2022-09-09T02:32:28.095Z,99.57
2022-09-09T02:35:02.207Z,99.60
2022-09-09T02:37:37.906Z,99.61
2022-09-09T02:40:09.053Z,99.53
2022-09-09T02:42:47.566Z,99.64
2022-09-09T02:45:21.397Z,99.60
2022-09-09T02:48:06.392Z,99.69
2022-09-09T02:50:44.721Z,99.91
2022-09-09T02:53:17.151Z,99.96
2022-09-09T02:56:05.134Z,99.99
2022-09-09T02:58:37.438Z,99.99
2022-09-09T03:01:07.749Z,99.99
2022-09-09T03:03:35.949Z,99.99
2022-09-09T03:06:08.636Z,99.99
2022-09-09T03:08:36.855Z,99.99
2022-09-09T03:11:05.772Z,99.99
2022-09-09T03:13:36.793Z,99.99
2022-09-09T03:16:05.739Z,99.99
2022-09-09T03:18:38.567Z,99.99
2022-09-09T03:21:08.430Z,99.99
2022-09-09T03:23:38.467Z,99.99
2022-09-09T03:26:06.440Z,99.99
2022-09-09T03:28:44.304Z,99.99
2022-09-09T03:31:12.433Z,99.99
2022-09-09T03:33:43.259Z,99.99
2022-09-09T03:36:15.030Z,99.99
2022-09-09T03:38:43.262Z,99.99
2022-09-09T03:41:13.821Z,99.99
2022-09-09T03:43:42.907Z,99.99
2022-09-09T03:46:10.802Z,99.99
2022-09-09T03:48:39.376Z,99.99
2022-09-09T03:51:07.502Z,99.99
2022-09-09T03:53:36.730Z,99.99
2022-09-09T03:56:07.621Z,99.99
2022-09-09T03:58:36.838Z,99.99
2022-09-09T04:01:14.452Z,99.99
2022-09-09T04:03:44.373Z,99.99
2022-09-09T04:06:14.297Z,99.99
2022-09-09T04:08:43.447Z,99.99
2022-09-09T04:11:12.432Z,99.99
2022-09-09T04:13:42.916Z,99.99
2022-09-09T04:16:18.268Z,99.99
2022-09-09T04:18:48.496Z,99.99
2022-09-09T04:21:18.461Z,99.99
2022-09-09T04:23:46.873Z,99.99
2022-09-09T04:26:15.045Z,99.99
2022-09-09T04:28:45.507Z,99.99
2022-09-09T04:31:22.502Z,99.99
2022-09-09T04:33:52.384Z,99.99
2022-09-09T04:36:20.669Z,99.99
2022-09-09T04:38:51.134Z,99.99
2022-09-09T04:41:19.673Z,99.99
2022-09-09T04:43:51.155Z,99.99
2022-09-09T04:46:19.068Z,99.99
2022-09-09T04:48:50.763Z,99.99
2022-09-09T04:51:19.607Z,99.99
2022-09-09T04:53:51.667Z,99.99
2022-09-09T04:56:20.190Z,99.99
2022-09-09T04:58:55.253Z,99.99
2022-09-09T05:01:26.692Z,99.99
2022-09-09T05:03:58.213Z,99.99
2022-09-09T05:06:25.988Z,99.99
2022-09-09T05:08:59.988Z,99.99
2022-09-09T05:11:33.136Z,99.99
2022-09-09T05:14:21.375Z,99.99
2022-09-09T05:16:50.595Z,99.99
2022-09-09T05:19:20.630Z,99.99
2022-09-09T05:21:50.925Z,99.99
2022-09-09T05:24:24.224Z,99.99
2022-09-09T05:26:54.669Z,99.99
2022-09-09T05:29:22.576Z,99.99
2022-09-09T05:31:50.805Z,99.99
2022-09-09T05:34:28.018Z,99.99
2022-09-09T05:36:55.990Z,99.99
2022-09-09T05:39:25.654Z,99.99
2022-09-09T05:41:53.641Z,99.99
2022-09-09T05:44:21.615Z,99.99
2022-09-09T05:46:50.542Z,99.99
2022-09-09T05:49:19.105Z,99.99
2022-09-09T05:51:47.118Z,99.99
2022-09-09T05:54:16.751Z,99.99
2022-09-09T05:56:53.592Z,99.99
2022-09-09T05:59:21.753Z,99.69
2022-09-09T06:01:51.950Z,99.54
2022-09-09T06:04:27.771Z,97.70
2022-09-09T06:06:55.747Z,96.89
2022-09-09T06:09:24.471Z,97.50
2022-09-09T06:11:52.449Z,97.73
2022-09-09T06:14:22.874Z,98.05
2022-09-09T06:16:52.909Z,97.64
2022-09-09T06:19:27.379Z,97.38
2022-09-09T06:21:57.503Z,97.36
2022-09-09T06:24:25.526Z,96.43
2022-09-09T06:26:53.335Z,94.85
2022-09-09T06:29:24.696Z,93.66
2022-09-09T06:31:54.052Z,92.81
2022-09-09T06:34:24.111Z,91.31
2022-09-09T06:36:58.649Z,90.19
2022-09-09T06:39:28.047Z,87.76
2022-09-09T06:41:58.678Z,86.05
2022-09-09T06:44:44.828Z,84.19
2022-09-09T06:47:18.663Z,82.18
2022-09-09T06:49:48.449Z,83.42
2022-09-09T06:52:19.223Z,86.55
2022-09-09T06:54:48.009Z,88.90
2022-09-09T07:00:08.855Z,88.15
2022-09-09T07:02:40.356Z,85.73
2022-09-09T07:05:09.665Z,87.08
2022-09-09T07:07:39.607Z,88.00
2022-09-09T07:10:08.597Z,86.94
2022-09-09T07:12:38.602Z,87.17
2022-09-09T07:15:08.420Z,86.00
2022-09-09T07:17:36.279Z,84.36
2022-09-09T07:20:05.404Z,83.52
2022-09-09T07:22:34.465Z,82.54
2022-09-09T07:25:04.082Z,84.54
2022-09-09T07:27:31.943Z,87.09
2022-09-09T07:30:00.007Z,88.28
2022-09-09T07:32:27.960Z,88.92
2022-09-09T07:34:55.772Z,88.99
2022-09-09T07:37:23.711Z,87.93
2022-09-09T07:39:52.345Z,89.05
2022-09-09T07:42:20.760Z,88.90
2022-09-09T07:44:48.748Z,87.68
2022-09-09T07:47:17.960Z,88.25
2022-09-09T07:49:50.764Z,85.87
2022-09-09T07:52:23.391Z,86.75
2022-09-09T07:54:57.479Z,86.45
2022-09-09T07:57:25.776Z,85.03
2022-09-09T07:59:55.393Z,86.16
2022-09-09T08:02:24.523Z,86.43
2022-09-09T08:04:52.974Z,86.42
2022-09-09T08:07:22.485Z,85.91
2022-09-09T08:09:56.667Z,85.90
2022-09-09T08:12:28.694Z,85.93
2022-09-09T08:14:58.163Z,84.69
2022-09-09T08:17:29.809Z,85.02
2022-09-09T08:20:05.904Z,85.96
2022-09-09T08:22:35.221Z,86.48
2022-09-09T08:25:03.357Z,86.71
2022-09-09T08:27:33.780Z,87.59
2022-09-09T08:30:01.623Z,87.44
2022-09-09T08:32:31.339Z,87.13
2022-09-09T08:35:01.628Z,87.34
2022-09-09T08:37:30.880Z,87.19
2022-09-09T08:39:59.077Z,86.43
2022-09-09T08:42:42.602Z,86.06
2022-09-09T08:45:25.565Z,84.73
2022-09-09T08:48:05.562Z,84.06
2022-09-09T08:50:39.647Z,84.49
2022-09-09T08:53:23.763Z,84.10
2022-09-09T08:55:56.317Z,84.63
2022-09-09T08:58:44.168Z,85.03
2022-09-09T09:01:30.952Z,85.51
2022-09-09T09:04:29.098Z,86.25
2022-09-09T09:07:29.590Z,86.44
2022-09-09T09:10:41.796Z,86.53
2022-09-09T09:13:30.484Z,87.22
2022-09-09T09:16:26.139Z,87.34
2022-09-09T09:18:56.058Z,87.03
2022-09-09T09:21:36.289Z,86.05
2022-09-09T09:24:21.265Z,86.11
2022-09-09T09:26:50.726Z,85.57
2022-09-09T09:29:25.707Z,85.23
2022-09-09T09:32:02.075Z,85.12
2022-09-09T09:34:30.043Z,85.11
2022-09-09T09:37:02.636Z,85.23
2022-09-09T09:42:25.917Z,84.38
2022-09-09T09:44:56.738Z,84.22
2022-09-09T09:47:28.007Z,83.75
2022-09-09T09:50:03.561Z,83.42
2022-09-09T09:52:38.317Z,82.89
2022-09-09T09:55:15.416Z,82.62
2022-09-09T09:57:45.874Z,82.04
2022-09-09T10:00:18.782Z,82.21
2022-09-09T10:02:53.771Z,82.53
2022-09-09T10:05:35.518Z,82.96
2022-09-09T10:08:21.537Z,82.71
2022-09-09T10:11:15.602Z,83.23
2022-09-09T10:13:55.848Z,83.05
2022-09-09T10:16:31.542Z,82.19
2022-09-09T10:19:04.987Z,81.85
2022-09-09T10:22:03.153Z,80.22
2022-09-09T10:24:37.336Z,79.32
2022-09-09T10:27:33.003Z,77.62
2022-09-09T10:30:19.856Z,76.86
2022-09-09T10:36:10.198Z,74.69
2022-09-09T10:38:44.339Z,75.42
2022-09-09T10:41:27.544Z,76.95
2022-09-09T10:44:08.272Z,77.88
2022-09-09T10:46:53.288Z,78.03
2022-09-09T10:49:31.894Z,78.45
2022-09-09T10:52:17.690Z,79.24
2022-09-09T10:55:10.339Z,79.49
2022-09-09T10:57:51.163Z,79.77
2022-09-09T11:00:24.925Z,80.28
2022-09-09T11:03:01.607Z,80.64
2022-09-09T11:05:50.623Z,81.07
2022-09-09T11:08:41.412Z,80.94
2022-09-09T11:11:13.175Z,80.56
2022-09-09T11:13:44.556Z,79.64
2022-09-09T11:16:12.317Z,79.88
2022-09-09T11:18:43.632Z,79.52
2022-09-09T11:21:24.212Z,79.50
2022-09-09T11:24:05.847Z,80.15
2022-09-09T11:27:07.202Z,80.18
2022-09-09T11:29:50.490Z,79.51
2022-09-09T11:32:55.597Z,78.62
2022-09-09T11:35:36.653Z,78.33
2022-09-09T11:38:18.896Z,77.87
2022-09-09T11:40:48.443Z,78.06
2022-09-09T11:43:24.050Z,78.28
2022-09-09T11:46:00.491Z,78.01
2022-09-09T11:48:36.279Z,77.98
2022-09-09T11:51:14.761Z,79.09
2022-09-09T11:54:03.506Z,83.16
2022-09-09T11:56:33.947Z,85.56
2022-09-09T11:59:33.982Z,87.13
2022-09-09T12:02:19.284Z,87.50
2022-09-09T12:05:11.007Z,87.47
2022-09-09T12:08:12.797Z,87.29
2022-09-09T12:10:41.682Z,85.98
2022-09-09T12:13:18.872Z,86.23
2022-09-09T12:15:52.762Z,86.76
2022-09-09T12:18:38.843Z,86.30
2022-09-09T12:21:22.754Z,86.24
2022-09-09T12:24:00.265Z,85.03
2022-09-09T12:26:37.766Z,85.33
2022-09-09T12:29:20.650Z,84.39
2022-09-09T12:31:51.373Z,84.43
2022-09-09T12:34:38.069Z,85.55
2022-09-09T12:37:36.404Z,84.74
2022-09-09T12:40:04.896Z,84.01
2022-09-09T12:42:36.861Z,83.34
2022-09-09T12:45:21.542Z,83.40
2022-09-09T12:48:09.753Z,83.90
2022-09-09T12:50:44.732Z,83.51
2022-09-09T12:53:26.691Z,82.58
2022-09-09T12:56:00.088Z,82.54
2022-09-09T12:58:29.549Z,82.93
2022-09-09T13:00:58.429Z,82.63
2022-09-09T13:03:27.005Z,82.14
2022-09-09T13:06:01.224Z,81.65
2022-09-09T13:08:29.246Z,81.88
2022-09-09T13:11:02.853Z,81.76
2022-09-09T13:13:39.408Z,81.69
2022-09-09T13:16:22.961Z,81.12
2022-09-09T13:18:51.674Z,80.79
2022-09-09T13:21:20.574Z,81.06
2022-09-09T13:23:53.103Z,81.13
2022-09-09T13:26:25.110Z,80.52
2022-09-09T13:28:54.220Z,80.84
2022-09-09T13:31:23.724Z,80.91
2022-09-09T13:33:51.535Z,80.15
2022-09-09T13:36:32.915Z,79.73
2022-09-09T13:39:03.020Z,80.50
2022-09-09T13:41:37.762Z,79.93
2022-09-09T13:44:07.945Z,80.43
2022-09-09T13:46:43.938Z,79.93
2022-09-09T13:49:12.167Z,80.49
2022-09-09T13:51:47.687Z,80.40
2022-09-09T13:54:18.796Z,83.37
2022-09-09T13:56:47.324Z,83.91
2022-09-09T13:59:20.854Z,84.38
2022-09-09T14:01:50.145Z,84.96
2022-09-09T14:04:17.979Z,83.03
2022-09-09T14:06:45.975Z,82.58
2022-09-09T14:09:16.786Z,82.13
2022-09-09T14:11:46.655Z,81.20
2022-09-09T14:14:14.696Z,82.18
2022-09-09T14:16:42.553Z,81.39
2022-09-09T14:19:10.735Z,82.67
2022-09-09T14:21:38.931Z,82.71
2022-09-09T14:24:09.265Z,81.56
2022-09-09T14:26:37.791Z,82.38
2022-09-09T14:29:05.610Z,81.67
2022-09-09T14:31:33.680Z,82.18
2022-09-09T14:34:01.592Z,82.08
2022-09-09T14:36:29.812Z,81.47
2022-09-09T14:38:58.446Z,81.47
2022-09-09T14:41:26.455Z,81.21
2022-09-09T14:43:54.869Z,82.28
2022-09-09T14:46:23.148Z,81.53
2022-09-09T14:48:51.493Z,82.03
2022-09-09T14:51:23.120Z,82.35
2022-09-09T14:53:55.797Z,81.82
2022-09-09T14:56:30.550Z,82.64
2022-09-09T14:59:01.646Z,82.89
2022-09-09T15:01:30.532Z,82.83
2022-09-09T15:04:04.216Z,82.48
2022-09-09T15:06:34.821Z,82.03
2022-09-09T15:09:03.438Z,82.49
2022-09-09T15:11:38.780Z,82.47
2022-09-09T15:14:09.045Z,81.98
2022-09-09T15:16:37.730Z,82.05
2022-09-09T15:19:05.677Z,82.01
2022-09-09T15:21:36.173Z,81.38
2022-09-09T15:24:05.294Z,80.62
2022-09-09T15:26:33.163Z,81.44
2022-09-09T15:29:01.148Z,81.68
2022-09-09T15:31:31.356Z,80.99
2022-09-09T15:34:04.866Z,81.37
2022-09-09T15:36:38.772Z,81.96
2022-09-09T15:39:09.286Z,82.32
2022-09-09T15:41:37.792Z,82.76
2022-09-09T15:44:06.428Z,83.35
2022-09-09T15:46:39.973Z,83.51
2022-09-09T15:49:12.498Z,83.94
2022-09-09T15:51:45.497Z,84.46
2022-09-09T15:54:17.509Z,84.81
2022-09-09T15:56:47.550Z,84.58
2022-09-09T15:59:15.876Z,84.00
2022-09-09T16:01:44.781Z,83.83
2022-09-09T16:04:12.992Z,83.26
2022-09-09T16:06:40.781Z,83.37
2022-09-09T16:09:11.034Z,83.00
2022-09-09T16:11:40.097Z,82.66
2022-09-09T16:14:08.803Z,82.70
2022-09-09T16:16:37.822Z,83.29
2022-09-09T16:19:10.663Z,83.16
2022-09-09T16:21:40.985Z,83.16
2022-09-09T16:24:11.189Z,83.86
2022-09-09T16:26:41.878Z,83.72
2022-09-09T16:29:11.544Z,84.07
2022-09-09T16:31:41.618Z,85.35
2022-09-09T16:34:10.891Z,85.57
2022-09-09T16:36:42.145Z,86.22
2022-09-09T16:39:14.023Z,87.65
2022-09-09T16:41:44.935Z,88.78
2022-09-09T16:44:15.102Z,89.75
2022-09-09T16:46:44.683Z,90.44
2022-09-09T16:49:15.936Z,90.62
2022-09-09T16:51:49.505Z,90.91
2022-09-09T16:54:19.345Z,90.00
2022-09-09T16:56:49.364Z,90.27
2022-09-09T16:59:20.095Z,90.40
2022-09-09T17:01:50.429Z,89.60
2022-09-09T17:04:25.175Z,89.58
2022-09-09T17:06:55.750Z,89.50
2022-09-09T17:09:30.515Z,90.23
2022-09-09T17:11:59.449Z,90.12
2022-09-09T17:14:27.784Z,90.22
2022-09-09T17:16:55.818Z,90.02
2022-09-09T17:19:23.793Z,90.19
2022-09-09T17:22:16.621Z,91.01
2022-09-09T17:24:39.882Z,90.40
2022-09-09T17:27:09.890Z,90.85
2022-09-09T17:29:39.658Z,90.97
2022-09-09T17:32:08.778Z,91.18
2022-09-09T17:34:37.647Z,90.79
2022-09-09T17:37:07.854Z,90.66
2022-09-09T17:39:36.754Z,90.97
2022-09-09T17:42:08.983Z,90.68
2022-09-09T17:44:40.033Z,91.07
2022-09-09T17:47:08.828Z,91.92
2022-09-09T17:49:36.908Z,92.41
2022-09-09T17:52:05.926Z,92.49
2022-09-09T17:54:34.494Z,92.88
2022-09-09T17:57:02.569Z,92.97
2022-09-09T17:59:32.151Z,92.96
2022-09-09T18:02:00.229Z,93.30
2022-09-09T18:04:28.355Z,93.64
2022-09-09T18:06:56.631Z,94.18
2022-09-09T18:09:26.567Z,94.42
2022-09-09T18:11:57.083Z,94.83
2022-09-09T18:14:31.653Z,95.15
2022-09-09T18:17:01.908Z,95.46
2022-09-09T18:19:33.112Z,95.71
2022-09-09T18:22:03.236Z,95.94
2022-09-09T18:24:32.036Z,96.13
2022-09-09T18:27:00.086Z,96.32
2022-09-09T18:29:28.399Z,96.23
2022-09-09T18:31:57.687Z,96.32
2022-09-09T18:34:28.678Z,96.53
2022-09-09T18:36:57.432Z,96.60
2022-09-09T18:39:27.945Z,96.42
2022-09-09T18:42:02.484Z,96.64
2022-09-09T18:44:34.018Z,96.73
2022-09-09T18:47:03.431Z,96.86
2022-09-09T18:49:33.224Z,96.87
2022-09-09T18:52:03.322Z,96.78
2022-09-09T18:54:34.201Z,96.73
2022-09-09T18:57:02.823Z,96.59
2022-09-09T18:59:31.419Z,96.64
2022-09-09T19:01:59.579Z,96.56
2022-09-09T19:04:27.741Z,96.51
2022-09-09T19:06:58.828Z,96.23
2022-09-09T19:09:31.729Z,96.01
2022-09-09T19:12:01.064Z,96.06
2022-09-09T19:14:29.728Z,95.97
2022-09-09T19:16:57.965Z,95.89
2022-09-09T19:19:31.870Z,96.01
2022-09-09T19:22:02.144Z,96.11
2022-09-09T19:24:33.345Z,95.88
2022-09-09T19:27:05.824Z,95.94
2022-09-09T19:29:39.573Z,96.08
2022-09-09T19:34:59.559Z,95.88
2022-09-09T19:37:27.612Z,96.05
2022-09-09T19:39:55.759Z,96.22
2022-09-09T19:42:23.845Z,96.20
2022-09-09T19:44:53.049Z,96.47
2022-09-09T19:47:21.501Z,96.33
2022-09-09T19:49:51.455Z,96.12
2022-09-09T19:52:19.779Z,96.35
2022-09-09T19:54:47.650Z,96.50
2022-09-09T19:57:17.202Z,96.64
2022-09-09T19:59:45.334Z,97.17
2022-09-09T20:02:15.608Z,97.16
2022-09-09T20:04:44.811Z,97.19
2022-09-09T20:07:12.962Z,97.25
2022-09-09T20:09:41.425Z,97.47
2022-09-09T20:12:10.206Z,97.63
2022-09-09T20:14:40.276Z,97.83
2022-09-09T20:17:10.040Z,97.94
2022-09-09T20:19:41.918Z,98.04
2022-09-09T20:22:11.183Z,98.01
2022-09-09T20:24:39.042Z,98.03
2022-09-09T20:27:09.770Z,98.12
2022-09-09T20:29:38.102Z,98.10
2022-09-09T20:32:06.116Z,98.08
2022-09-09T20:34:35.534Z,97.88
2022-09-09T20:37:03.430Z,98.19
2022-09-09T20:39:31.240Z,98.29
2022-09-09T20:41:59.304Z,98.23
2022-09-09T20:44:27.771Z,98.21
2022-09-09T20:47:00.422Z,98.27
2022-09-09T20:49:29.640Z,98.44
2022-09-09T20:51:57.502Z,98.74
2022-09-09T20:54:27.949Z,98.77
2022-09-09T20:56:56.742Z,98.92
2022-09-09T20:59:27.322Z,99.02
2022-09-09T21:01:56.830Z,98.95
2022-09-09T21:04:26.045Z,98.99
2022-09-09T21:06:53.904Z,98.84
2022-09-09T21:09:25.002Z,98.88
2022-09-09T21:11:56.089Z,98.87
2022-09-09T21:14:23.974Z,98.78
2022-09-09T21:16:52.389Z,98.68
2022-09-09T21:19:20.550Z,98.76
2022-09-09T21:21:48.441Z,98.62
2022-09-09T21:24:16.537Z,98.68
2022-09-09T21:26:44.393Z,98.51
2022-09-09T21:29:14.325Z,98.60
2022-09-09T21:31:43.381Z,98.57
2022-09-09T21:34:13.415Z,98.50
2022-09-09T21:36:41.382Z,98.50
2022-09-09T21:39:10.195Z,98.39
2022-09-09T21:41:38.425Z,98.28
2022-09-09T21:44:06.422Z,98.55
2022-09-09T21:46:34.181Z,98.38
2022-09-09T21:49:03.982Z,98.48
2022-09-09T21:51:31.946Z,98.15
2022-09-09T21:53:59.719Z,98.20
2022-09-09T21:56:27.797Z,98.24
2022-09-09T21:59:03.611Z,98.33
2022-09-09T22:01:33.475Z,98.41
2022-09-09T22:04:01.873Z,98.43
2022-09-09T22:06:29.795Z,98.38
2022-09-09T22:08:59.080Z,98.37
2022-09-09T22:11:28.047Z,98.54
2022-09-09T22:13:56.059Z,98.66
2022-09-09T22:16:25.502Z,98.67
2022-09-09T22:18:59.004Z,98.74
2022-09-09T22:21:29.213Z,98.89
2022-09-09T22:24:02.480Z,98.94
2022-09-09T22:26:33.301Z,98.89
2022-09-09T22:29:01.246Z,99.11
2022-09-09T22:31:29.646Z,99.12
2022-09-09T22:33:57.602Z,99.27
2022-09-09T22:36:26.284Z,99.28
2022-09-09T22:38:54.357Z,99.31
2022-09-09T22:41:22.527Z,99.52
2022-09-09T22:43:53.524Z,99.47
2022-09-09T22:46:22.186Z,99.64
2022-09-09T22:48:50.398Z,99.88
2022-09-09T22:51:18.319Z,99.79
2022-09-09T22:53:46.412Z,99.90
2022-09-09T22:56:17.331Z,99.99
2022-09-09T22:58:46.389Z,99.99
2022-09-09T23:01:16.836Z,99.99
2022-09-09T23:03:46.095Z,99.99
2022-09-09T23:06:20.078Z,99.99
2022-09-09T23:08:49.972Z,99.95
2022-09-09T23:11:18.165Z,99.99
2022-09-09T23:13:54.835Z,99.97
2022-09-09T23:16:25.753Z,99.90
2022-09-09T23:18:57.567Z,99.89
2022-09-09T23:21:28.285Z,99.88
2022-09-09T23:24:00.012Z,99.84
2022-09-09T23:26:29.779Z,99.88
2022-09-09T23:28:59.371Z,99.87
2022-09-09T23:31:30.316Z,99.76
2022-09-09T23:34:00.535Z,99.88
2022-09-09T23:36:29.638Z,99.86
2022-09-09T23:39:03.408Z,99.94
2022-09-09T23:41:33.036Z,99.99
2022-09-09T23:44:02.306Z,99.99
2022-09-09T23:46:31.656Z,99.99
2022-09-09T23:49:02.395Z,99.99
2022-09-09T23:51:31.931Z,99.99
2022-09-09T23:54:03.706Z,99.99
2022-09-09T23:56:37.651Z,99.99
2022-09-09T23:59:08.245Z,99.99
